Time;durP1;ratioP1;P1;durP2;ratioP2;P2;SDS_P1;SDS_P2;PMS_P1;PMS_P2;Temp;Humidity;BMP_temperature;BMP_pressure;BME280_temperature;BME280_humidity;BME280_pressure;Samples;Min_cycle;Max_cycle;Signal;HPM_P1;HPM_P2
2021/08/14 00:00:49;;;;;;;6.22;5.63;;;;;;;22.91;65.23;101348.44;5033137;28;20026;-49
2021/08/14 00:03:15;;;;;;;5.90;5.32;;;;;;;22.92;65.06;101349.31;5034474;22;20025;-49
2021/08/14 00:05:40;;;;;;;5.63;5.13;;;;;;;22.90;65.35;101354.78;4999204;28;20109;-49
2021/08/14 00:08:05;;;;;;;7.25;6.55;;;;;;;22.91;65.06;101351.13;5011393;28;20025;-49
2021/08/14 00:10:31;;;;;;;6.15;5.50;;;;;;;22.89;65.22;101355.72;5013352;28;20481;-49
2021/08/14 00:12:57;;;;;;;6.03;5.43;;;;;;;22.90;65.16;101351.19;5019195;28;20029;-49
2021/08/14 00:15:22;;;;;;;5.75;5.25;;;;;;;22.88;65.20;101347.75;5015997;28;20527;-49
2021/08/14 00:17:48;;;;;;;5.95;5.40;;;;;;;22.89;65.35;101360.22;5019612;28;20032;-49
2021/08/14 00:20:13;;;;;;;6.20;5.28;;;;;;;22.88;64.99;101358.50;5017025;28;20112;-49
2021/08/14 00:22:38;;;;;;;5.70;5.20;;;;;;;22.87;64.92;101368.38;5016288;28;20052;-49
2021/08/14 00:25:05;;;;;;;5.97;5.47;;;;;;;22.87;65.03;101354.91;5018224;28;20477;-49
2021/08/14 00:27:30;;;;;;;5.47;4.70;;;;;;;22.88;64.91;101374.63;5015293;28;20401;-49
2021/08/14 00:29:55;;;;;;;5.25;4.85;;;;;;;22.86;64.92;101372.00;5015680;28;20053;-49
2021/08/14 00:32:20;;;;;;;4.90;4.50;;;;;;;22.86;64.94;101373.81;5016805;28;20540;-49
2021/08/14 00:34:46;;;;;;;5.00;4.60;;;;;;;22.86;65.14;101376.50;5013070;28;20038;-49
2021/08/14 00:37:11;;;;;;;5.55;5.05;;;;;;;22.84;64.97;101364.97;5019345;28;20097;-49
2021/08/14 00:39:37;;;;;;;4.78;4.38;;;;;;;22.85;64.96;101367.59;5019578;28;20024;-49
2021/08/14 00:42:02;;;;;;;6.45;5.80;;;;;;;22.84;64.95;101367.66;5014696;28;20052;-49
2021/08/14 00:44:28;;;;;;;5.15;4.45;;;;;;;22.83;65.16;101377.53;5015195;28;20477;-49
2021/08/14 00:46:53;;;;;;;4.88;4.32;;;;;;;22.80;65.07;101373.19;5018719;28;20580;-49
2021/08/14 00:49:18;;;;;;;5.22;4.72;;;;;;;22.80;64.84;101381.25;5018116;28;20030;-49
2021/08/14 00:51:44;;;;;;;5.13;4.63;;;;;;;22.80;64.91;101366.94;5012013;28;20028;-49
2021/08/14 00:54:10;;;;;;;5.72;4.55;;;;;;;22.79;65.00;101367.88;5015862;28;20064;-51
2021/08/14 00:56:36;;;;;;;6.18;4.72;;;;;;;22.78;64.96;101366.16;5012640;28;20030;-49
2021/08/14 00:59:02;;;;;;;4.72;4.28;;;;;;;22.77;64.85;101364.41;5017576;28;20068;-49
2021/08/14 01:01:27;;;;;;;6.90;5.28;;;;;;;22.76;64.60;101370.72;5020587;28;20036;-49
2021/08/14 01:03:53;;;;;;;5.03;4.50;;;;;;;22.76;64.78;101365.34;5016881;28;20029;-49
2021/08/14 01:06:19;;;;;;;5.22;4.72;;;;;;;22.75;64.93;101374.38;5014584;28;20018;-49
2021/08/14 01:08:46;;;;;;;5.25;4.28;;;;;;;22.76;64.63;101370.72;5018112;28;20061;-49
2021/08/14 01:11:12;;;;;;;5.03;4.38;;;;;;;22.75;64.81;101374.38;4985195;28;20033;-49
2021/08/14 01:13:37;;;;;;;4.75;4.25;;;;;;;22.75;64.48;101369.00;5015237;28;20033;-50
2021/08/14 01:16:05;;;;;;;4.78;4.38;;;;;;;22.73;64.83;101366.38;4999516;28;20036;-49
2021/08/14 01:18:30;;;;;;;4.57;4.13;;;;;;;22.72;64.79;101369.13;5014339;28;20101;-49
2021/08/14 01:20:56;;;;;;;4.72;4.32;;;;;;;22.72;64.95;101374.50;4995380;28;20432;-49
2021/08/14 01:23:21;;;;;;;4.28;3.88;;;;;;;22.71;64.76;101378.16;5017914;28;20029;-49
2021/08/14 01:26:05;;;;;;;5.22;4.40;;;;;;;22.71;64.70;101367.41;5013198;28;20026;-49
2021/08/14 01:28:35;;;;;;;4.40;4.00;;;;;;;22.68;64.64;101373.81;5012651;28;20018;-49
2021/08/14 01:31:03;;;;;;;5.05;4.28;;;;;;;22.70;64.61;101381.81;5014564;28;20028;-50
2021/08/14 01:33:39;;;;;;;4.82;4.22;;;;;;;22.68;64.40;101376.50;4998543;28;20022;-49
2021/08/14 01:36:08;;;;;;;4.57;4.15;;;;;;;22.68;64.63;101371.13;5013687;28;20076;-50
2021/08/14 01:38:38;;;;;;;4.75;4.10;;;;;;;22.68;64.65;101373.81;5013281;28;20508;-49
2021/08/14 01:41:05;;;;;;;4.35;3.95;;;;;;;22.67;64.65;101370.22;5000332;28;20033;-50
2021/08/14 01:43:31;;;;;;;7.35;4.15;;;;;;;22.66;64.71;101376.56;5020939;28;20076;-49
2021/08/14 01:45:56;;;;;;;4.90;4.38;;;;;;;22.65;64.49;101372.16;5019899;28;20034;-49
2021/08/14 01:48:21;;;;;;;5.50;4.10;;;;;;;22.64;64.46;101378.44;5019314;28;20025;-49
2021/08/14 01:50:47;;;;;;;4.68;4.28;;;;;;;22.65;64.62;101374.84;5024460;28;20488;-49
2021/08/14 01:53:12;;;;;;;5.30;4.30;;;;;;;22.63;64.62;101373.16;5018102;28;20038;-49
2021/08/14 01:55:37;;;;;;;5.00;4.00;;;;;;;22.62;64.35;101380.34;5016719;28;20029;-49
2021/08/14 01:58:03;;;;;;;4.97;4.07;;;;;;;22.62;64.35;101383.03;5023806;28;20025;-49
2021/08/14 02:00:29;;;;;;;4.70;4.20;;;;;;;22.61;64.21;101377.75;5018666;28;20033;-49
2021/08/14 02:02:55;;;;;;;5.53;4.10;;;;;;;22.60;64.42;101376.84;5015305;28;20439;-49
2021/08/14 02:05:22;;;;;;;4.65;3.95;;;;;;;22.60;64.22;101379.53;5020786;28;20025;-49
2021/08/14 02:07:48;;;;;;;4.47;4.07;;;;;;;22.59;64.21;101385.00;5019943;28;20080;-50
2021/08/14 02:10:13;;;;;;;5.65;4.60;;;;;;;22.60;64.25;101378.69;5022507;28;20033;-50
2021/08/14 02:12:39;;;;;;;4.35;3.92;;;;;;;22.58;64.32;101375.19;5018397;28;20026;-49
2021/08/14 02:15:10;;;;;;;4.25;3.85;;;;;;;22.57;64.39;101371.63;5015343;28;20029;-49
2021/08/14 02:17:35;;;;;;;4.50;3.75;;;;;;;22.56;64.16;101369.91;5016873;28;20026;-49
2021/08/14 02:20:01;;;;;;;4.68;4.28;;;;;;;22.55;64.18;101370.81;5022479;28;20039;-49
2021/08/14 02:22:26;;;;;;;6.63;4.07;;;;;;;22.54;64.26;101369.09;5020839;28;20075;-50
2021/08/14 02:24:51;;;;;;;5.03;4.53;;;;;;;22.53;64.15;101368.19;5014614;28;20207;-49
2021/08/14 02:27:16;;;;;;;4.57;4.18;;;;;;;22.53;64.24;101375.38;5000140;28;20499;-49
2021/08/14 02:29:42;;;;;;;4.20;3.80;;;;;;;22.51;64.38;101371.91;5015086;28;20041;-49
2021/08/14 02:32:08;;;;;;;5.72;4.20;;;;;;;22.50;64.02;101371.03;5014186;28;20025;-50
2021/08/14 02:34:33;;;;;;;6.32;4.70;;;;;;;22.51;64.11;101371.91;5015622;28;20096;-49
2021/08/14 02:36:59;;;;;;;5.00;3.83;;;;;;;22.49;64.30;101373.78;5017370;28;20629;-50
2021/08/14 02:39:24;;;;;;;4.60;4.18;;;;;;;22.48;64.28;101375.63;5014780;28;20041;-49
2021/08/14 02:41:49;;;;;;;4.68;4.28;;;;;;;22.46;64.18;101364.06;5020488;28;20034;-49
2021/08/14 02:44:14;;;;;;;4.72;4.32;;;;;;;22.46;64.18;101372.13;5014331;28;20029;-49
2021/08/14 02:46:40;;;;;;;5.97;4.18;;;;;;;22.46;64.35;101364.06;5017874;28;20022;-49
2021/08/14 02:49:05;;;;;;;5.15;4.22;;;;;;;22.46;64.04;101363.19;5010791;28;20487;-49
2021/08/14 02:51:33;;;;;;;5.00;4.10;;;;;;;22.44;64.12;101360.56;5016639;28;20534;-49
2021/08/14 02:53:59;;;;;;;4.32;3.83;;;;;;;22.42;63.92;101368.72;5018179;28;20045;-49
2021/08/14 02:56:24;;;;;;;6.35;4.20;;;;;;;22.41;64.13;101356.22;5020350;28;20017;-49
2021/08/14 02:58:49;;;;;;;5.05;4.50;;;;;;;22.41;64.10;101356.22;5015644;28;20021;-49
2021/08/14 03:01:15;;;;;;;4.93;4.32;;;;;;;22.40;63.82;101362.53;5016972;28;20511;-49
2021/08/14 03:03:40;;;;;;;5.25;4.72;;;;;;;22.39;64.06;101357.25;5017792;28;20018;-50
2021/08/14 03:06:21;;;;;;;4.88;4.22;;;;;;;22.38;64.07;101361.72;5016415;28;20018;-49
2021/08/14 03:08:46;;;;;;;6.30;4.53;;;;;;;22.37;63.85;101360.00;5016649;28;20025;-49
2021/08/14 03:11:12;;;;;;;5.57;4.72;;;;;;;22.37;63.91;101365.38;5016984;28;20439;-49
2021/08/14 03:13:37;;;;;;;6.00;4.72;;;;;;;22.35;63.77;101361.91;5016329;28;20029;-50
2021/08/14 03:16:02;;;;;;;5.10;4.47;;;;;;;22.35;63.83;101371.78;5015127;28;20025;-49
2021/08/14 03:18:27;;;;;;;5.13;4.63;;;;;;;22.34;63.85;101368.19;5020771;28;20091;-49
2021/08/14 03:20:53;;;;;;;5.15;4.70;;;;;;;22.32;63.85;101370.09;5017403;28;20029;-49
2021/08/14 03:23:18;;;;;;;5.72;4.50;;;;;;;22.34;63.63;101380.78;5017638;28;20018;-51
2021/08/14 03:25:43;;;;;;;5.47;4.45;;;;;;;22.32;63.77;101370.09;5016179;28;20514;-49
2021/08/14 03:28:09;;;;;;;5.15;4.63;;;;;;;22.32;63.68;101371.91;5015217;28;20026;-49
2021/08/14 03:30:34;;;;;;;5.32;4.40;;;;;;;22.28;63.74;101372.06;5012865;28;20034;-49
2021/08/14 03:32:59;;;;;;;4.85;4.22;;;;;;;22.28;63.85;101376.56;5012514;28;20121;-49
2021/08/14 03:35:25;;;;;;;4.95;4.20;;;;;;;22.26;63.69;101371.28;5011904;28;20025;-49
2021/08/14 03:37:50;;;;;;;5.15;4.03;;;;;;;22.25;63.69;101366.84;5012432;28;20076;-49
2021/08/14 03:40:15;;;;;;;4.78;4.28;;;;;;;22.24;63.80;101369.63;5012110;28;20041;-49
2021/08/14 03:42:41;;;;;;;4.65;4.15;;;;;;;22.23;63.53;101373.22;5011927;28;20030;-49
2021/08/14 03:45:06;;;;;;;4.70;4.30;;;;;;;22.22;63.74;101366.13;5007845;28;20452;-52
2021/08/14 03:47:32;;;;;;;5.68;5.10;;;;;;;22.22;63.49;101371.47;5010785;28;20026;-50
2021/08/14 03:49:57;;;;;;;5.22;4.72;;;;;;;22.21;63.52;101364.38;5012229;28;20049;-49
2021/08/14 03:52:23;;;;;;;5.00;4.50;;;;;;;22.19;63.65;101361.75;5009070;28;20032;-49
2021/08/14 03:54:49;;;;;;;4.47;4.05;;;;;;;22.17;63.53;101358.25;5012179;28;20072;-49
2021/08/14 03:57:14;;;;;;;5.00;4.60;;;;;;;22.16;63.80;101357.41;5015237;28;20400;-49
2021/08/14 03:59:39;;;;;;;5.43;4.75;;;;;;;22.16;63.60;101357.41;5009872;28;20091;-49
2021/08/14 04:02:05;;;;;;;4.95;4.35;;;;;;;22.14;63.95;101359.28;5011499;28;20551;-49
2021/08/14 04:04:30;;;;;;;6.35;4.45;;;;;;;22.14;63.61;101356.59;5011037;28;20117;-49
2021/08/14 04:06:55;;;;;;;5.13;4.63;;;;;;;22.13;63.50;101360.25;5011875;28;20033;-49
2021/08/14 04:09:20;;;;;;;5.90;4.88;;;;;;;22.11;63.66;101359.41;5011770;28;20030;-49
2021/08/14 04:11:46;;;;;;;5.28;4.38;;;;;;;22.10;63.68;101357.69;5011637;28;20690;-49
2021/08/14 04:14:11;;;;;;;4.10;3.75;;;;;;;22.10;63.65;101356.81;5009803;28;20057;-50
2021/08/14 04:16:37;;;;;;;5.32;4.32;;;;;;;22.09;63.67;101355.97;5007891;28;20030;-49
2021/08/14 04:19:02;;;;;;;5.05;4.28;;;;;;;22.08;63.70;101358.72;5009895;28;20477;-49
2021/08/14 04:21:27;;;;;;;5.50;4.97;;;;;;;22.08;63.76;101353.34;5009021;28;20097;-49
2021/08/14 04:23:53;;;;;;;5.38;4.75;;;;;;;22.06;63.50;101358.78;5010193;28;20024;-49
2021/08/14 04:26:18;;;;;;;5.43;4.90;;;;;;;22.05;63.58;101357.91;5009267;28;20156;-49
2021/08/14 04:28:43;;;;;;;4.50;4.07;;;;;;;22.04;63.71;101364.22;5011227;28;20026;-49
2021/08/14 04:31:09;;;;;;;5.15;4.53;;;;;;;22.03;63.58;101375.91;5010972;28;20049;-49
2021/08/14 04:33:34;;;;;;;5.78;5.28;;;;;;;22.03;63.78;101372.34;5011534;28;20037;-49
2021/08/14 04:35:59;;;;;;;4.80;4.30;;;;;;;22.03;63.88;101366.97;5010138;28;20481;-49
2021/08/14 04:38:24;;;;;;;4.90;4.50;;;;;;;22.01;63.49;101374.25;5011808;28;20022;-49
2021/08/14 04:40:50;;;;;;;5.13;4.65;;;;;;;22.01;63.58;101375.09;5009584;28;20026;-50
2021/08/14 04:43:15;;;;;;;4.15;3.83;;;;;;;22.00;63.62;101373.38;5011140;28;20030;-49
2021/08/14 04:45:40;;;;;;;5.35;4.40;;;;;;;21.99;63.58;101384.19;5009641;28;20057;-50
2021/08/14 04:48:06;;;;;;;5.55;5.03;;;;;;;21.99;63.81;101378.81;5010987;28;20026;-50
2021/08/14 04:50:31;;;;;;;4.95;4.10;;;;;;;21.98;63.54;101375.28;5011174;28;20033;-49
2021/08/14 04:52:56;;;;;;;5.05;4.53;;;;;;;21.97;63.50;101378.88;5011006;28;20079;-49
2021/08/14 04:55:21;;;;;;;6.05;5.35;;;;;;;21.97;63.69;101384.25;5013401;28;20478;-49
2021/08/14 04:57:47;;;;;;;4.95;4.10;;;;;;;21.96;63.57;101384.31;5007756;28;20126;-49
2021/08/14 05:00:13;;;;;;;5.28;4.35;;;;;;;21.95;63.75;101385.25;5011485;28;20053;-49
2021/08/14 05:02:39;;;;;;;5.05;4.43;;;;;;;21.95;63.50;101382.56;5009714;28;20044;-49
2021/08/14 05:05:05;;;;;;;4.63;4.22;;;;;;;21.94;63.51;101375.47;5007997;28;20061;-50
2021/08/14 05:07:33;;;;;;;4.68;4.20;;;;;;;21.92;63.65;101371.06;5009301;28;20490;-49
2021/08/14 05:09:58;;;;;;;4.57;4.18;;;;;;;21.91;63.60;101381.84;5014184;28;20469;-49
2021/08/14 05:12:24;;;;;;;5.15;4.65;;;;;;;21.90;63.47;101372.91;5009694;28;20060;-49
2021/08/14 05:14:49;;;;;;;4.50;4.07;;;;;;;21.90;63.49;101367.56;5008754;28;20022;-49
2021/08/14 05:17:14;;;;;;;5.15;4.65;;;;;;;21.90;63.32;101372.03;5010305;28;20063;-49
2021/08/14 05:19:41;;;;;;;4.45;4.03;;;;;;;21.88;63.23;101369.41;5005682;28;20049;-49
2021/08/14 05:22:06;;;;;;;4.95;4.28;;;;;;;21.89;63.32;101373.88;5008386;28;20021;-49
2021/08/14 05:24:31;;;;;;;4.47;4.07;;;;;;;21.88;63.29;101369.41;5011983;28;20025;-49
2021/08/14 05:26:57;;;;;;;4.30;3.90;;;;;;;21.87;63.24;101366.84;5009962;28;20034;-49
2021/08/14 05:29:22;;;;;;;4.63;4.22;;;;;;;21.87;63.29;101373.06;5010525;28;20477;-50
2021/08/14 05:31:48;;;;;;;4.78;4.35;;;;;;;21.86;63.36;101370.44;5010158;28;20030;-49
2021/08/14 05:34:14;;;;;;;4.30;3.90;;;;;;;21.86;63.39;101375.81;5010075;28;20661;-49
2021/08/14 05:36:39;;;;;;;4.88;4.38;;;;;;;21.85;63.29;101374.97;5007493;28;20026;-49
2021/08/14 05:39:04;;;;;;;5.10;4.22;;;;;;;21.84;63.36;101378.56;5008877;28;20028;-49
2021/08/14 05:41:30;;;;;;;4.13;3.72;;;;;;;21.84;63.33;101381.25;5007303;28;20032;-50
2021/08/14 05:43:55;;;;;;;4.60;3.90;;;;;;;21.83;63.27;101382.19;5010255;28;20362;-50
2021/08/14 05:46:21;;;;;;;3.83;3.53;;;;;;;21.83;63.37;101370.56;5010020;28;20099;-49
2021/08/14 05:48:46;;;;;;;4.43;4.03;;;;;;;21.83;63.11;101374.16;5010368;28;20083;-49
2021/08/14 05:51:12;;;;;;;4.45;4.05;;;;;;;21.83;63.01;101378.63;5010770;28;20033;-50
2021/08/14 05:53:37;;;;;;;4.68;3.65;;;;;;;21.82;63.25;101382.25;4989595;28;20022;-49
2021/08/14 05:56:03;;;;;;;4.43;4.03;;;;;;;21.83;62.91;101375.94;5009990;28;20579;-50
2021/08/14 05:58:29;;;;;;;4.40;4.00;;;;;;;21.82;62.99;101380.47;5009317;28;20038;-49
2021/08/14 06:00:54;;;;;;;4.05;3.65;;;;;;;21.82;63.11;101385.84;5009808;28;20034;-49
2021/08/14 06:03:19;;;;;;;5.10;4.57;;;;;;;21.82;63.10;101376.88;5010173;28;20047;-49
2021/08/14 06:05:45;;;;;;;4.57;4.10;;;;;;;21.82;62.90;101374.22;5053799;23;20036;-49
2021/08/14 06:08:10;;;;;;;5.57;4.38;;;;;;;21.82;63.13;101377.78;5067116;28;20055;-49
2021/08/14 06:10:36;;;;;;;4.47;3.80;;;;;;;21.81;62.96;101377.84;5062301;28;20025;-48
2021/08/14 06:13:01;;;;;;;4.88;3.70;;;;;;;21.80;63.02;101374.28;5061641;28;20439;-49
2021/08/14 06:15:26;;;;;;;4.43;3.65;;;;;;;21.81;62.96;101369.78;5062192;28;20107;-48
2021/08/14 06:17:53;;;;;;;3.88;3.47;;;;;;;21.79;62.94;101375.22;5063606;28;20533;-48
2021/08/14 06:20:18;;;;;;;5.65;4.10;;;;;;;21.80;63.06;101376.97;5063226;28;20111;-49
2021/08/14 06:22:43;;;;;;;4.30;3.90;;;;;;;21.80;62.95;101379.66;5050761;28;20107;-49
2021/08/14 06:25:10;;;;;;;4.15;3.63;;;;;;;21.81;63.09;101386.78;5061440;28;20104;-48
2021/08/14 06:27:36;;;;;;;4.60;4.20;;;;;;;21.80;63.01;101385.00;5067444;28;20017;-48
2021/08/14 06:30:01;;;;;;;4.32;3.90;;;;;;;21.80;63.01;101385.00;5069107;28;20036;-49
2021/08/14 06:32:27;;;;;;;4.25;3.83;;;;;;;21.79;62.84;101380.59;5067912;28;20021;-46
2021/08/14 06:34:52;;;;;;;4.55;4.15;;;;;;;21.79;62.97;101380.59;5070934;28;20024;-47
2021/08/14 06:37:17;;;;;;;4.20;3.80;;;;;;;21.79;63.06;101383.28;5043880;28;20468;-47
2021/08/14 06:39:43;;;;;;;4.80;4.13;;;;;;;21.79;62.93;101384.16;5063839;28;20059;-46
2021/08/14 06:42:08;;;;;;;5.13;3.83;;;;;;;21.79;63.07;101380.59;5066525;28;20023;-46
2021/08/14 06:44:34;;;;;;;6.85;4.45;;;;;;;21.79;63.05;101384.16;5069941;28;20111;-46
2021/08/14 06:47:00;;;;;;;4.75;3.72;;;;;;;21.77;62.86;101377.97;5063836;28;20016;-47
2021/08/14 06:49:25;;;;;;;4.97;4.57;;;;;;;21.78;62.88;101376.19;5059125;28;20024;-47
2021/08/14 06:51:50;;;;;;;5.18;4.78;;;;;;;21.78;63.07;101376.19;5068263;28;20025;-47
2021/08/14 06:54:16;;;;;;;5.07;4.55;;;;;;;21.80;62.83;101379.66;5064533;28;20025;-47
2021/08/14 06:56:41;;;;;;;4.60;4.20;;;;;;;21.79;62.96;101375.22;5061225;28;20068;-46
2021/08/14 06:59:06;;;;;;;5.57;4.50;;;;;;;21.79;62.83;101369.84;5065635;28;20048;-46
2021/08/14 07:01:32;;;;;;;5.38;4.72;;;;;;;21.78;62.71;101376.19;5048766;28;20392;-47
2021/08/14 07:03:57;;;;;;;5.22;4.72;;;;;;;21.79;62.92;101375.22;5043631;28;20029;-47
2021/08/14 07:06:24;;;;;;;5.25;4.75;;;;;;;21.76;62.78;101381.63;5062028;28;20074;-47
2021/08/14 07:08:49;;;;;;;5.28;4.75;;;;;;;21.77;62.71;101372.59;5068038;28;20038;-47
2021/08/14 07:11:16;;;;;;;4.97;4.57;;;;;;;21.79;62.74;101372.53;5067424;28;20036;-46
2021/08/14 07:13:42;;;;;;;5.45;4.88;;;;;;;21.77;62.81;101374.41;5057570;28;20029;-46
2021/08/14 07:16:07;;;;;;;6.55;4.93;;;;;;;21.76;62.66;101364.63;5062793;28;20029;-46
2021/08/14 07:18:33;;;;;;;5.15;4.43;;;;;;;21.75;62.30;101369.13;5067666;28;20033;-46
2021/08/14 07:20:58;;;;;;;5.78;5.10;;;;;;;21.76;62.50;101370.00;5058574;28;20040;-47
2021/08/14 07:23:24;;;;;;;5.75;5.22;;;;;;;21.75;62.46;101361.09;5057366;28;20036;-46
2021/08/14 07:25:51;;;;;;;5.45;4.95;;;;;;;21.76;62.45;101367.31;5064474;28;20028;-46
2021/08/14 07:28:16;;;;;;;5.32;4.82;;;;;;;21.75;62.47;101365.56;5062665;28;20040;-47
2021/08/14 07:30:42;;;;;;;5.47;5.00;;;;;;;21.74;62.32;101362.00;5064377;28;20403;-47
2021/08/14 07:33:07;;;;;;;5.50;5.00;;;;;;;21.77;62.50;101366.34;5068819;28;20491;-47
2021/08/14 07:35:32;;;;;;;5.18;4.72;;;;;;;21.75;62.27;101357.50;5066764;28;20028;-47
2021/08/14 07:37:58;;;;;;;5.80;4.78;;;;;;;21.75;62.53;101357.50;5064246;28;20025;-47
2021/08/14 07:40:24;;;;;;;4.63;4.22;;;;;;;21.75;62.27;101362.88;5060085;28;20029;-47
2021/08/14 07:42:49;;;;;;;5.20;4.72;;;;;;;21.72;62.23;101354.94;5058562;28;20021;-46
2021/08/14 07:45:17;;;;;;;5.90;5.30;;;;;;;21.74;62.21;101356.63;5063682;28;20035;-46
2021/08/14 07:47:42;;;;;;;6.22;4.78;;;;;;;21.74;62.23;101355.78;5066596;28;20016;-47
2021/08/14 07:50:09;;;;;;;5.75;4.93;;;;;;;21.78;62.06;101357.38;5059987;28;20040;-47
2021/08/14 07:52:34;;;;;;;5.25;4.75;;;;;;;21.76;62.07;101349.41;5064841;28;20082;-47
2021/08/14 07:54:59;;;;;;;6.63;4.95;;;;;;;21.77;62.01;101344.88;5057086;28;20028;-47
2021/08/14 07:57:25;;;;;;;5.55;5.05;;;;;;;21.75;61.99;101347.66;5060075;28;20457;-47
2021/08/14 07:59:51;;;;;;;6.13;4.93;;;;;;;21.74;62.13;101342.38;5065541;28;20063;-47
2021/08/14 08:02:16;;;;;;;5.43;4.75;;;;;;;21.76;62.04;101348.50;5061718;28;20020;-47
2021/08/14 08:04:41;;;;;;;4.97;4.57;;;;;;;21.79;61.82;101341.22;5062235;28;20035;-47
2021/08/14 08:07:06;;;;;;;6.00;5.18;;;;;;;21.79;61.92;101343.00;5065125;28;20036;-47
2021/08/14 08:09:32;;;;;;;6.85;4.75;;;;;;;21.80;62.03;101339.38;5065560;28;21373;-47
2021/08/14 08:11:57;;;;;;;6.05;5.40;;;;;;;21.76;61.92;101343.16;5058018;28;20048;-47
2021/08/14 08:14:22;;;;;;;5.35;4.45;;;;;;;21.80;62.04;101339.38;5059300;28;20028;-47
2021/08/14 08:16:50;;;;;;;5.60;4.78;;;;;;;21.81;61.67;101334.88;5058914;28;20063;-47
2021/08/14 08:19:16;;;;;;;6.05;5.43;;;;;;;21.78;61.99;101319.81;5040432;28;20107;-47
2021/08/14 08:21:41;;;;;;;4.85;4.40;;;;;;;21.78;61.92;101320.66;5063174;28;20103;-47
2021/08/14 08:24:06;;;;;;;5.70;5.10;;;;;;;21.79;61.94;101317.03;5065675;28;20436;-46
2021/08/14 08:26:32;;;;;;;5.72;5.22;;;;;;;21.76;62.02;101314.50;5057692;28;20025;-47
2021/08/14 08:28:58;;;;;;;6.38;4.88;;;;;;;21.80;61.93;101317.91;5061704;28;20025;-47
2021/08/14 08:31:25;;;;;;;6.35;4.93;;;;;;;21.81;61.69;101313.41;5061389;28;20085;-47
2021/08/14 08:33:50;;;;;;;5.95;5.18;;;;;;;21.81;61.89;101302.66;5064560;28;20025;-48
2021/08/14 08:36:15;;;;;;;5.90;5.32;;;;;;;21.80;61.90;101307.16;5061288;28;20024;-48
2021/08/14 08:38:41;;;;;;;6.28;5.30;;;;;;;21.80;61.60;101301.78;5062469;28;20407;-48
2021/08/14 08:41:07;;;;;;;5.20;4.70;;;;;;;21.81;61.69;101303.56;5057356;28;20052;-48
2021/08/14 08:43:32;;;;;;;5.90;5.30;;;;;;;21.79;61.72;101303.63;5058932;28;20107;-48
2021/08/14 08:45:57;;;;;;;6.07;5.15;;;;;;;21.79;61.79;101305.44;5045733;28;20553;-48
2021/08/14 08:48:23;;;;;;;6.63;5.30;;;;;;;21.79;61.46;101300.06;5061632;28;20479;-48
2021/08/14 08:50:48;;;;;;;7.07;5.25;;;;;;;21.78;61.57;101309.06;5036088;28;20043;-48
2021/08/14 08:53:14;;;;;;;5.50;4.90;;;;;;;21.81;61.45;101302.66;5057521;28;20020;-48
2021/08/14 08:55:40;;;;;;;6.25;5.63;;;;;;;21.80;61.34;101296.41;5057242;28;20021;-49
2021/08/14 08:58:05;;;;;;;5.40;4.90;;;;;;;21.80;61.28;101296.41;5056569;28;20021;-48
2021/08/14 09:00:30;;;;;;;6.07;5.32;;;;;;;21.81;61.15;101297.31;5058128;28;20091;-47
2021/08/14 09:03:07;;;;;;;6.05;5.55;;;;;;;21.76;61.40;101301.06;5058108;28;20055;-47
2021/08/14 09:05:33;;;;;;;8.25;6.30;;;;;;;21.79;61.38;101294.69;5129868;22;20042;-48
2021/08/14 09:08:09;;;;;;;6.50;5.82;;;;;;;21.79;61.60;101290.19;5036410;28;20043;-48
2021/08/14 09:10:35;;;;;;;7.70;5.10;;;;;;;21.77;61.39;101289.38;5034067;28;20026;-48
2021/08/14 09:13:18;;;;;;;5.93;5.32;;;;;;;21.79;61.49;101290.19;5035263;28;20025;-48
2021/08/14 09:15:44;;;;;;;6.50;5.90;;;;;;;21.77;61.35;101275.09;5026186;28;20032;-47
2021/08/14 09:18:12;;;;;;;6.45;5.85;;;;;;;21.81;61.08;101283.88;5045194;28;20057;-48
2021/08/14 09:20:54;;;;;;;7.07;6.20;;;;;;;21.79;61.17;101282.16;5045768;28;20573;-48
2021/08/14 09:23:24;;;;;;;6.88;6.18;;;;;;;21.78;61.13;101276.84;5035436;28;20127;-47
2021/08/14 09:25:51;;;;;;;6.28;5.22;;;;;;;21.81;61.16;101276.72;5044438;28;20024;-49
2021/08/14 09:28:19;;;;;;;12.55;5.90;;;;;;;21.77;61.33;101265.22;5045409;28;20074;-49
2021/08/14 09:30:53;;;;;;;6.30;5.70;;;;;;;21.79;61.21;101270.53;5030398;28;20025;-49
2021/08/14 09:33:31;;;;;;;8.13;6.03;;;;;;;21.79;61.16;101273.22;5049327;28;20110;-48
2021/08/14 09:36:00;;;;;;;7.28;5.90;;;;;;;21.81;61.05;101271.34;5042082;28;20104;-49
2021/08/14 09:38:49;;;;;;;6.28;5.65;;;;;;;21.79;61.19;101262.47;5045586;28;20036;-49
2021/08/14 09:41:18;;;;;;;6.90;6.13;;;;;;;21.82;61.09;101256.09;5046000;28;20055;-49
2021/08/14 09:43:45;;;;;;;6.68;5.55;;;;;;;21.83;61.19;101253.31;5045425;28;20053;-49
2021/08/14 09:46:11;;;;;;;6.80;5.82;;;;;;;21.81;61.04;101255.22;5014051;28;20025;-48
2021/08/14 09:48:37;;;;;;;6.45;5.80;;;;;;;21.81;61.06;101260.59;5030656;28;20024;-49
2021/08/14 09:51:03;;;;;;;6.97;5.45;;;;;;;21.83;61.00;101253.31;5047549;28;20029;-49
2021/08/14 09:53:29;;;;;;;6.35;5.47;;;;;;;21.82;61.19;101250.72;5045269;28;20025;-48
2021/08/14 09:56:11;;;;;;;7.07;5.68;;;;;;;21.82;61.31;101251.59;5044780;28;20024;-48
2021/08/14 09:58:38;;;;;;;6.32;5.60;;;;;;;21.83;61.20;101253.31;5027329;28;20025;-48
2021/08/14 10:01:04;;;;;;;7.47;5.82;;;;;;;21.82;61.21;101254.28;5045177;28;20025;-48
2021/08/14 10:03:31;;;;;;;6.90;6.15;;;;;;;21.83;61.33;101247.97;5051354;28;20025;-48
2021/08/14 10:05:58;;;;;;;6.55;5.80;;;;;;;21.84;61.33;101248.84;5050050;28;21625;-48
2021/08/14 10:08:24;;;;;;;8.38;5.35;;;;;;;21.86;61.56;101236.19;5048461;28;20480;-48
2021/08/14 10:10:49;;;;;;;7.32;6.25;;;;;;;21.83;61.23;101239.91;5048031;28;20484;-48
2021/08/14 10:13:18;;;;;;;6.13;5.63;;;;;;;21.82;61.32;101243.53;5034636;28;20025;-47
2021/08/14 10:15:43;;;;;;;6.50;5.70;;;;;;;21.82;60.90;101245.34;5034218;28;20419;-47
2021/08/14 10:18:08;;;;;;;7.30;6.28;;;;;;;21.86;61.28;101241.56;5052973;28;20108;-47
2021/08/14 10:20:34;;;;;;;6.60;5.90;;;;;;;21.86;61.25;101238.88;5029218;28;20075;-48
2021/08/14 10:23:02;;;;;;;6.00;5.40;;;;;;;21.86;61.11;101230.81;5050867;28;20056;-48
2021/08/14 10:25:28;;;;;;;6.97;6.28;;;;;;;21.84;61.28;101220.16;5030354;28;20103;-48
2021/08/14 10:27:59;;;;;;;8.38;6.50;;;;;;;21.86;61.13;101210.22;5050146;28;20033;-48
2021/08/14 10:30:44;;;;;;;7.03;6.28;;;;;;;21.86;61.24;101220.09;5050302;28;20368;-47
2021/08/14 10:33:31;;;;;;;6.80;5.53;;;;;;;21.85;61.26;101213.88;5031084;28;20032;-47
2021/08/14 10:35:58;;;;;;;7.57;5.43;;;;;;;21.88;61.20;101218.22;5050195;28;20049;-48
2021/08/14 10:38:43;;;;;;;6.80;5.88;;;;;;;21.87;61.09;101208.44;5050077;28;20025;-47
2021/08/14 10:41:09;;;;;;;7.25;5.82;;;;;;;21.87;61.27;101205.75;5045789;28;20107;-47
2021/08/14 10:43:53;;;;;;;6.65;5.93;;;;;;;21.87;61.35;101206.59;5045841;28;20024;-50
2021/08/14 10:46:38;;;;;;;5.95;5.18;;;;;;;21.88;61.13;101200.28;5047442;28;20071;-50
2021/08/14 10:49:05;;;;;;;7.82;6.22;;;;;;;21.90;61.03;101195.72;5052225;28;20033;-47
2021/08/14 10:51:48;;;;;;;6.50;5.68;;;;;;;21.88;61.14;101192.22;5047493;28;20476;-47
2021/08/14 10:54:40;;;;;;;6.38;5.82;;;;;;;21.89;61.07;101190.41;5046242;28;20104;-48
2021/08/14 10:57:08;;;;;;;6.88;5.78;;;;;;;21.89;61.18;101183.25;5032499;28;20036;-47
2021/08/14 10:59:39;;;;;;;7.35;5.95;;;;;;;21.89;61.20;101171.63;5051762;28;20047;-47
2021/08/14 11:02:07;;;;;;;;;;;;;;;21.90;61.04;101174.22;5052128;28;20098;-47
2021/08/14 11:04:44;;;;;;;5.57;5.07;;;;;;;21.89;60.78;101177.88;5049417;28;19916;-47
2021/08/14 11:09:53;;;;;;;6.18;5.57;;;;;;;21.89;61.07;101172.50;5048417;28;20051;-48
2021/08/14 11:12:42;;;;;;;6.40;5.82;;;;;;;21.91;60.74;101175.09;5048250;28;20025;-49
2021/08/14 11:15:17;;;;;;;6.35;5.75;;;;;;;21.90;60.67;101163.50;5032860;28;20491;-47
2021/08/14 11:17:44;;;;;;;6.50;5.90;;;;;;;21.92;60.68;101166.09;5048392;28;20033;-47
2021/08/14 11:20:19;;;;;;;7.28;5.95;;;;;;;21.91;60.59;101165.22;5033892;28;20491;-48
2021/08/14 11:22:48;;;;;;;6.60;6.00;;;;;;;21.91;60.53;101165.22;5047354;28;20033;-48
2021/08/14 11:25:30;;;;;;;6.82;6.13;;;;;;;21.94;60.75;101149.91;5050005;28;20050;-48